sensor_id;sensor_type;location;lat;lon;timestamp;temperature;humidity
60727;DHT22;46577;49.004;12.120;2023-04-15T00:01:08;7.70;99.90
60727;DHT22;46577;49.004;12.120;2023-04-15T00:03:34;7.70;99.90
60727;DHT22;46577;49.004;12.120;2023-04-15T00:06:00;7.60;99.90
60727;DHT22;46577;49.004;12.120;2023-04-15T00:08:26;7.50;99.90
60727;DHT22;46577;49.004;12.120;2023-04-15T00:10:52;7.50;99.90
60727;DHT22;46577;49.004;12.120;2023-04-15T00:13:17;7.50;99.90
60727;DHT22;46577;49.004;12.120;2023-04-15T00:15:43;7.50;99.90
60727;DHT22;46577;49.004;12.120;2023-04-15T00:18:09;7.40;99.90
60727;DHT22;46577;49.004;12.120;2023-04-15T00:20:35;7.50;99.90
60727;DHT22;46577;49.004;12.120;2023-04-15T00:23:01;7.50;99.90
60727;DHT22;46577;49.004;12.120;2023-04-15T00:25:28;7.50;99.90
60727;DHT22;46577;49.004;12.120;2023-04-15T00:27:54;7.50;99.90
60727;DHT22;46577;49.004;12.120;2023-04-15T00:30:19;7.50;99.90
60727;DHT22;46577;49.004;12.120;2023-04-15T00:32:45;7.50;99.90
60727;DHT22;46577;49.004;12.120;2023-04-15T00:35:11;7.40;99.90
60727;DHT22;46577;49.004;12.120;2023-04-15T00:37:37;7.50;99.90
60727;DHT22;46577;49.004;12.120;2023-04-15T00:40:03;7.50;99.90
60727;DHT22;46577;49.004;12.120;2023-04-15T00:42:30;7.50;99.90
60727;DHT22;46577;49.004;12.120;2023-04-15T00:44:56;7.50;99.90
60727;DHT22;46577;49.004;12.120;2023-04-15T00:47:22;7.50;99.90
60727;DHT22;46577;49.004;12.120;2023-04-15T00:49:48;7.50;99.90
60727;DHT22;46577;49.004;12.120;2023-04-15T00:52:13;7.50;99.90
60727;DHT22;46577;49.004;12.120;2023-04-15T00:54:39;7.50;99.90
60727;DHT22;46577;49.004;12.120;2023-04-15T00:57:08;7.50;99.90
60727;DHT22;46577;49.004;12.120;2023-04-15T00:59:34;7.50;99.90
60727;DHT22;46577;49.004;12.120;2023-04-15T01:02:00;7.60;99.90
60727;DHT22;46577;49.004;12.120;2023-04-15T01:04:26;7.60;99.90
60727;DHT22;46577;49.004;12.120;2023-04-15T01:06:51;7.60;99.90
60727;DHT22;46577;49.004;12.120;2023-04-15T01:09:17;7.70;99.90
60727;DHT22;46577;49.004;12.120;2023-04-15T01:11:43;7.60;99.90
60727;DHT22;46577;49.004;12.120;2023-04-15T01:14:09;7.70;99.90
60727;DHT22;46577;49.004;12.120;2023-04-15T01:16:36;7.70;99.90
60727;DHT22;46577;49.004;12.120;2023-04-15T01:19:06;7.70;99.90
60727;DHT22;46577;49.004;12.120;2023-04-15T01:21:36;7.80;99.90
60727;DHT22;46577;49.004;12.120;2023-04-15T01:24:08;7.80;99.90
60727;DHT22;46577;49.004;12.120;2023-04-15T01:26:38;7.80;99.90
60727;DHT22;46577;49.004;12.120;2023-04-15T01:29:04;7.80;99.90
60727;DHT22;46577;49.004;12.120;2023-04-15T01:31:29;7.80;99.90
60727;DHT22;46577;49.004;12.120;2023-04-15T01:33:55;7.80;99.90
60727;DHT22;46577;49.004;12.120;2023-04-15T01:36:21;7.80;99.90
60727;DHT22;46577;49.004;12.120;2023-04-15T01:38:47;7.90;99.90
60727;DHT22;46577;49.004;12.120;2023-04-15T01:41:13;7.80;99.90
60727;DHT22;46577;49.004;12.120;2023-04-15T01:43:39;7.80;99.90
60727;DHT22;46577;49.004;12.120;2023-04-15T01:46:05;7.80;99.90
60727;DHT22;46577;49.004;12.120;2023-04-15T01:48:31;7.80;99.90
60727;DHT22;46577;49.004;12.120;2023-04-15T01:50:58;7.80;99.90
60727;DHT22;46577;49.004;12.120;2023-04-15T01:53:24;7.70;99.90
60727;DHT22;46577;49.004;12.120;2023-04-15T01:55:51;7.70;99.90
60727;DHT22;46577;49.004;12.120;2023-04-15T01:58:17;7.70;99.90
60727;DHT22;46577;49.004;12.120;2023-04-15T02:00:43;7.70;99.90
60727;DHT22;46577;49.004;12.120;2023-04-15T02:03:09;7.70;99.90
60727;DHT22;46577;49.004;12.120;2023-04-15T02:05:35;7.70;99.90
60727;DHT22;46577;49.004;12.120;2023-04-15T02:08:01;7.80;99.90
60727;DHT22;46577;49.004;12.120;2023-04-15T02:10:26;7.80;99.90
60727;DHT22;46577;49.004;12.120;2023-04-15T02:12:52;7.80;99.90
60727;DHT22;46577;49.004;12.120;2023-04-15T02:15:18;7.70;99.90
60727;DHT22;46577;49.004;12.120;2023-04-15T02:17:44;7.70;99.90
60727;DHT22;46577;49.004;12.120;2023-04-15T02:20:15;7.70;99.90
60727;DHT22;46577;49.004;12.120;2023-04-15T02:22:41;7.70;99.90
60727;DHT22;46577;49.004;12.120;2023-04-15T02:25:07;7.70;99.90
60727;DHT22;46577;49.004;12.120;2023-04-15T02:27:34;7.80;99.90
60727;DHT22;46577;49.004;12.120;2023-04-15T02:30:00;7.80;99.90
60727;DHT22;46577;49.004;12.120;2023-04-15T02:32:26;7.80;99.90
60727;DHT22;46577;49.004;12.120;2023-04-15T02:34:53;7.80;99.90
60727;DHT22;46577;49.004;12.120;2023-04-15T02:37:19;7.80;99.90
60727;DHT22;46577;49.004;12.120;2023-04-15T02:39:45;7.70;99.90
60727;DHT22;46577;49.004;12.120;2023-04-15T02:42:11;7.70;99.90
60727;DHT22;46577;49.004;12.120;2023-04-15T02:44:37;7.70;99.90
60727;DHT22;46577;49.004;12.120;2023-04-15T02:47:03;7.70;99.90
60727;DHT22;46577;49.004;12.120;2023-04-15T02:49:31;7.80;99.90
60727;DHT22;46577;49.004;12.120;2023-04-15T02:51:57;7.80;99.90
60727;DHT22;46577;49.004;12.120;2023-04-15T02:54:25;7.70;99.90
60727;DHT22;46577;49.004;12.120;2023-04-15T02:56:53;7.80;99.90
60727;DHT22;46577;49.004;12.120;2023-04-15T02:59:20;7.70;99.90
60727;DHT22;46577;49.004;12.120;2023-04-15T03:01:46;7.70;99.90
60727;DHT22;46577;49.004;12.120;2023-04-15T03:04:12;7.70;99.90
60727;DHT22;46577;49.004;12.120;2023-04-15T03:06:38;7.70;99.90
60727;DHT22;46577;49.004;12.120;2023-04-15T03:09:04;7.70;99.90
60727;DHT22;46577;49.004;12.120;2023-04-15T03:11:30;7.70;99.90
60727;DHT22;46577;49.004;12.120;2023-04-15T03:13:56;7.70;99.90
60727;DHT22;46577;49.004;12.120;2023-04-15T03:16:23;7.60;99.90
60727;DHT22;46577;49.004;12.120;2023-04-15T03:18:48;7.50;99.90
60727;DHT22;46577;49.004;12.120;2023-04-15T03:21:14;7.40;99.90
60727;DHT22;46577;49.004;12.120;2023-04-15T03:23:40;7.40;99.90
60727;DHT22;46577;49.004;12.120;2023-04-15T03:26:06;7.40;99.90
60727;DHT22;46577;49.004;12.120;2023-04-15T03:28:31;7.30;99.90
60727;DHT22;46577;49.004;12.120;2023-04-15T03:30:58;7.30;99.90
60727;DHT22;46577;49.004;12.120;2023-04-15T03:33:23;7.30;99.90
60727;DHT22;46577;49.004;12.120;2023-04-15T03:35:50;7.30;99.90
60727;DHT22;46577;49.004;12.120;2023-04-15T03:38:16;7.30;99.90
60727;DHT22;46577;49.004;12.120;2023-04-15T03:40:42;7.30;99.90
60727;DHT22;46577;49.004;12.120;2023-04-15T03:43:08;7.20;99.90
60727;DHT22;46577;49.004;12.120;2023-04-15T03:45:33;7.20;99.90
60727;DHT22;46577;49.004;12.120;2023-04-15T03:47:59;7.30;99.90
60727;DHT22;46577;49.004;12.120;2023-04-15T03:50:24;7.20;99.90
60727;DHT22;46577;49.004;12.120;2023-04-15T03:52:50;7.20;99.90
60727;DHT22;46577;49.004;12.120;2023-04-15T03:55:16;7.30;99.90
60727;DHT22;46577;49.004;12.120;2023-04-15T03:57:41;7.30;99.90
60727;DHT22;46577;49.004;12.120;2023-04-15T04:00:08;7.30;99.90
60727;DHT22;46577;49.004;12.120;2023-04-15T04:02:34;7.10;99.90
60727;DHT22;46577;49.004;12.120;2023-04-15T04:05:00;7.10;99.90
60727;DHT22;46577;49.004;12.120;2023-04-15T04:07:25;7.10;99.90
60727;DHT22;46577;49.004;12.120;2023-04-15T04:09:51;7.00;99.90
60727;DHT22;46577;49.004;12.120;2023-04-15T04:12:16;6.90;99.90
60727;DHT22;46577;49.004;12.120;2023-04-15T04:14:42;7.00;99.90
60727;DHT22;46577;49.004;12.120;2023-04-15T04:17:08;7.00;99.90
60727;DHT22;46577;49.004;12.120;2023-04-15T04:19:34;7.00;99.90
60727;DHT22;46577;49.004;12.120;2023-04-15T04:22:00;7.10;99.90
60727;DHT22;46577;49.004;12.120;2023-04-15T04:24:25;7.00;99.90
60727;DHT22;46577;49.004;12.120;2023-04-15T04:26:51;7.00;99.90
60727;DHT22;46577;49.004;12.120;2023-04-15T04:29:16;7.00;99.90
60727;DHT22;46577;49.004;12.120;2023-04-15T04:31:42;7.00;99.90
60727;DHT22;46577;49.004;12.120;2023-04-15T04:34:08;7.10;99.90
60727;DHT22;46577;49.004;12.120;2023-04-15T04:36:34;7.10;99.90
60727;DHT22;46577;49.004;12.120;2023-04-15T04:39:00;7.10;99.90
60727;DHT22;46577;49.004;12.120;2023-04-15T04:41:26;7.00;99.90
60727;DHT22;46577;49.004;12.120;2023-04-15T04:43:51;7.00;99.90
60727;DHT22;46577;49.004;12.120;2023-04-15T04:46:17;7.00;99.90
60727;DHT22;46577;49.004;12.120;2023-04-15T04:48:43;7.00;99.90
60727;DHT22;46577;49.004;12.120;2023-04-15T04:51:09;7.00;99.90
60727;DHT22;46577;49.004;12.120;2023-04-15T04:53:35;6.90;99.90
60727;DHT22;46577;49.004;12.120;2023-04-15T04:56:02;6.90;99.90
60727;DHT22;46577;49.004;12.120;2023-04-15T04:58:27;7.10;99.90
60727;DHT22;46577;49.004;12.120;2023-04-15T05:00:53;7.20;99.90
60727;DHT22;46577;49.004;12.120;2023-04-15T05:03:19;7.10;99.90
60727;DHT22;46577;49.004;12.120;2023-04-15T05:05:44;7.10;99.90
60727;DHT22;46577;49.004;12.120;2023-04-15T05:08:10;7.10;99.90
60727;DHT22;46577;49.004;12.120;2023-04-15T05:10:36;7.10;99.90
60727;DHT22;46577;49.004;12.120;2023-04-15T05:13:02;7.10;99.90
60727;DHT22;46577;49.004;12.120;2023-04-15T05:15:27;7.00;99.90
60727;DHT22;46577;49.004;12.120;2023-04-15T05:17:53;7.00;99.90
60727;DHT22;46577;49.004;12.120;2023-04-15T05:20:19;6.90;99.90
60727;DHT22;46577;49.004;12.120;2023-04-15T05:22:45;7.00;99.90
60727;DHT22;46577;49.004;12.120;2023-04-15T05:25:10;7.00;99.90
60727;DHT22;46577;49.004;12.120;2023-04-15T05:27:36;7.10;99.90
60727;DHT22;46577;49.004;12.120;2023-04-15T05:30:02;7.20;99.90
60727;DHT22;46577;49.004;12.120;2023-04-15T05:32:28;7.20;99.90
60727;DHT22;46577;49.004;12.120;2023-04-15T05:34:53;7.30;99.90
60727;DHT22;46577;49.004;12.120;2023-04-15T05:37:19;7.40;99.90
60727;DHT22;46577;49.004;12.120;2023-04-15T05:39:45;7.30;99.90
60727;DHT22;46577;49.004;12.120;2023-04-15T05:42:11;7.30;99.90
60727;DHT22;46577;49.004;12.120;2023-04-15T05:44:36;7.20;99.90
60727;DHT22;46577;49.004;12.120;2023-04-15T05:47:02;7.10;99.90
60727;DHT22;46577;49.004;12.120;2023-04-15T05:49:28;7.10;99.90
60727;DHT22;46577;49.004;12.120;2023-04-15T05:51:54;7.00;99.90
60727;DHT22;46577;49.004;12.120;2023-04-15T05:54:20;7.00;99.90
60727;DHT22;46577;49.004;12.120;2023-04-15T05:56:47;7.10;99.90
60727;DHT22;46577;49.004;12.120;2023-04-15T05:59:13;7.20;99.90
60727;DHT22;46577;49.004;12.120;2023-04-15T06:01:39;7.20;99.90
60727;DHT22;46577;49.004;12.120;2023-04-15T06:04:04;7.20;99.90
60727;DHT22;46577;49.004;12.120;2023-04-15T06:06:30;7.30;99.90
60727;DHT22;46577;49.004;12.120;2023-04-15T06:08:57;7.30;99.90
60727;DHT22;46577;49.004;12.120;2023-04-15T06:11:22;7.30;99.90
60727;DHT22;46577;49.004;12.120;2023-04-15T06:13:48;7.30;99.90
60727;DHT22;46577;49.004;12.120;2023-04-15T06:16:14;7.40;99.90
60727;DHT22;46577;49.004;12.120;2023-04-15T06:18:40;7.50;99.90
60727;DHT22;46577;49.004;12.120;2023-04-15T06:21:05;7.40;99.90
60727;DHT22;46577;49.004;12.120;2023-04-15T06:23:34;7.60;99.90
60727;DHT22;46577;49.004;12.120;2023-04-15T06:26:01;7.50;99.90
60727;DHT22;46577;49.004;12.120;2023-04-15T06:28:26;7.40;99.90
60727;DHT22;46577;49.004;12.120;2023-04-15T06:30:52;7.40;99.90
60727;DHT22;46577;49.004;12.120;2023-04-15T06:33:18;7.40;99.90
60727;DHT22;46577;49.004;12.120;2023-04-15T06:35:44;7.30;99.90
60727;DHT22;46577;49.004;12.120;2023-04-15T06:38:10;7.30;99.90
60727;DHT22;46577;49.004;12.120;2023-04-15T06:40:35;7.40;99.90
60727;DHT22;46577;49.004;12.120;2023-04-15T06:43:01;7.60;99.90
60727;DHT22;46577;49.004;12.120;2023-04-15T06:45:26;7.50;99.90
60727;DHT22;46577;49.004;12.120;2023-04-15T06:47:52;7.60;99.90
60727;DHT22;46577;49.004;12.120;2023-04-15T06:50:18;7.50;99.90
60727;DHT22;46577;49.004;12.120;2023-04-15T06:52:43;7.40;99.90
60727;DHT22;46577;49.004;12.120;2023-04-15T06:55:09;7.40;99.90
60727;DHT22;46577;49.004;12.120;2023-04-15T06:57:35;7.40;99.90
60727;DHT22;46577;49.004;12.120;2023-04-15T07:00:01;7.40;99.90
60727;DHT22;46577;49.004;12.120;2023-04-15T07:02:26;7.50;99.90
60727;DHT22;46577;49.004;12.120;2023-04-15T07:04:52;7.50;99.90
60727;DHT22;46577;49.004;12.120;2023-04-15T07:07:18;7.50;99.90
60727;DHT22;46577;49.004;12.120;2023-04-15T07:09:44;7.60;99.90
60727;DHT22;46577;49.004;12.120;2023-04-15T07:12:09;7.60;99.90
60727;DHT22;46577;49.004;12.120;2023-04-15T07:14:35;7.60;99.90
60727;DHT22;46577;49.004;12.120;2023-04-15T07:17:01;7.70;99.90
60727;DHT22;46577;49.004;12.120;2023-04-15T07:19:27;7.80;99.90
60727;DHT22;46577;49.004;12.120;2023-04-15T07:21:52;7.80;99.90
60727;DHT22;46577;49.004;12.120;2023-04-15T07:24:18;7.90;99.90
60727;DHT22;46577;49.004;12.120;2023-04-15T07:26:45;7.90;99.90
60727;DHT22;46577;49.004;12.120;2023-04-15T07:29:10;8.10;99.90
60727;DHT22;46577;49.004;12.120;2023-04-15T07:31:36;8.20;99.90
60727;DHT22;46577;49.004;12.120;2023-04-15T07:34:02;8.20;99.90
60727;DHT22;46577;49.004;12.120;2023-04-15T07:36:29;8.20;99.90
60727;DHT22;46577;49.004;12.120;2023-04-15T07:38:55;8.20;99.90
60727;DHT22;46577;49.004;12.120;2023-04-15T07:41:22;8.10;99.90
60727;DHT22;46577;49.004;12.120;2023-04-15T07:43:48;8.10;99.90
60727;DHT22;46577;49.004;12.120;2023-04-15T07:46:14;8.00;99.90
60727;DHT22;46577;49.004;12.120;2023-04-15T07:48:40;7.80;99.90
60727;DHT22;46577;49.004;12.120;2023-04-15T07:51:07;7.90;99.90
60727;DHT22;46577;49.004;12.120;2023-04-15T07:53:33;8.00;99.90
60727;DHT22;46577;49.004;12.120;2023-04-15T07:55:58;8.20;99.90
60727;DHT22;46577;49.004;12.120;2023-04-15T07:58:24;8.30;99.90
60727;DHT22;46577;49.004;12.120;2023-04-15T08:00:50;8.40;99.90
60727;DHT22;46577;49.004;12.120;2023-04-15T08:03:16;8.40;99.90
60727;DHT22;46577;49.004;12.120;2023-04-15T08:05:41;8.40;99.90
60727;DHT22;46577;49.004;12.120;2023-04-15T08:08:07;8.30;99.90
60727;DHT22;46577;49.004;12.120;2023-04-15T08:10:33;8.20;99.90
60727;DHT22;46577;49.004;12.120;2023-04-15T08:12:59;8.30;99.90
60727;DHT22;46577;49.004;12.120;2023-04-15T08:15:25;8.40;99.90
60727;DHT22;46577;49.004;12.120;2023-04-15T08:17:51;8.50;99.90
60727;DHT22;46577;49.004;12.120;2023-04-15T08:20:17;8.60;99.90
60727;DHT22;46577;49.004;12.120;2023-04-15T08:22:43;8.60;99.90
60727;DHT22;46577;49.004;12.120;2023-04-15T08:25:09;8.60;99.90
60727;DHT22;46577;49.004;12.120;2023-04-15T08:27:34;8.70;99.90
60727;DHT22;46577;49.004;12.120;2023-04-15T08:30:00;8.90;99.90
60727;DHT22;46577;49.004;12.120;2023-04-15T08:32:26;8.80;99.90
60727;DHT22;46577;49.004;12.120;2023-04-15T08:34:52;8.70;99.90
60727;DHT22;46577;49.004;12.120;2023-04-15T08:37:17;8.80;99.90
60727;DHT22;46577;49.004;12.120;2023-04-15T08:39:43;8.90;99.90
60727;DHT22;46577;49.004;12.120;2023-04-15T08:42:16;8.90;99.90
60727;DHT22;46577;49.004;12.120;2023-04-15T08:44:43;9.00;99.90
60727;DHT22;46577;49.004;12.120;2023-04-15T08:47:12;8.90;99.90
60727;DHT22;46577;49.004;12.120;2023-04-15T08:49:40;8.90;99.90
60727;DHT22;46577;49.004;12.120;2023-04-15T08:52:07;8.90;99.90
60727;DHT22;46577;49.004;12.120;2023-04-15T08:54:34;8.80;99.90
60727;DHT22;46577;49.004;12.120;2023-04-15T08:57:00;8.90;99.90
60727;DHT22;46577;49.004;12.120;2023-04-15T08:59:29;8.80;99.90
60727;DHT22;46577;49.004;12.120;2023-04-15T09:01:56;8.80;99.90
60727;DHT22;46577;49.004;12.120;2023-04-15T09:04:22;8.90;99.90
60727;DHT22;46577;49.004;12.120;2023-04-15T09:06:48;8.70;99.90
60727;DHT22;46577;49.004;12.120;2023-04-15T09:09:14;8.70;99.90
60727;DHT22;46577;49.004;12.120;2023-04-15T09:11:40;8.80;99.90
60727;DHT22;46577;49.004;12.120;2023-04-15T09:14:06;8.70;99.90
60727;DHT22;46577;49.004;12.120;2023-04-15T09:16:54;8.70;99.90
60727;DHT22;46577;49.004;12.120;2023-04-15T09:19:22;9.00;99.90
60727;DHT22;46577;49.004;12.120;2023-04-15T09:21:48;9.00;99.90
60727;DHT22;46577;49.004;12.120;2023-04-15T09:24:16;8.90;99.90
60727;DHT22;46577;49.004;12.120;2023-04-15T09:26:41;8.90;99.90
60727;DHT22;46577;49.004;12.120;2023-04-15T09:29:10;8.90;99.90
60727;DHT22;46577;49.004;12.120;2023-04-15T09:31:38;8.90;99.90
60727;DHT22;46577;49.004;12.120;2023-04-15T09:34:05;9.10;99.90
60727;DHT22;46577;49.004;12.120;2023-04-15T09:36:57;9.10;99.90
60727;DHT22;46577;49.004;12.120;2023-04-15T09:39:23;9.20;99.90
60727;DHT22;46577;49.004;12.120;2023-04-15T09:42:05;9.10;99.90
60727;DHT22;46577;49.004;12.120;2023-04-15T09:44:31;8.80;99.90
60727;DHT22;46577;49.004;12.120;2023-04-15T09:46:57;8.90;99.90
60727;DHT22;46577;49.004;12.120;2023-04-15T09:49:22;8.90;99.90
60727;DHT22;46577;49.004;12.120;2023-04-15T09:51:48;9.00;99.90
60727;DHT22;46577;49.004;12.120;2023-04-15T09:54:18;9.10;99.90
60727;DHT22;46577;49.004;12.120;2023-04-15T09:56:45;9.10;99.90
60727;DHT22;46577;49.004;12.120;2023-04-15T09:59:11;9.20;99.90
60727;DHT22;46577;49.004;12.120;2023-04-15T10:01:37;9.40;99.90
60727;DHT22;46577;49.004;12.120;2023-04-15T10:04:05;9.60;99.90
60727;DHT22;46577;49.004;12.120;2023-04-15T10:06:31;10.80;99.90
60727;DHT22;46577;49.004;12.120;2023-04-15T10:08:58;9.60;99.90
60727;DHT22;46577;49.004;12.120;2023-04-15T10:11:27;9.70;99.90
60727;DHT22;46577;49.004;12.120;2023-04-15T10:13:55;9.80;99.90
60727;DHT22;46577;49.004;12.120;2023-04-15T10:16:22;10.10;99.90
60727;DHT22;46577;49.004;12.120;2023-04-15T10:18:55;10.20;99.90
60727;DHT22;46577;49.004;12.120;2023-04-15T10:21:21;10.00;99.90
60727;DHT22;46577;49.004;12.120;2023-04-15T10:23:48;10.00;99.90
60727;DHT22;46577;49.004;12.120;2023-04-15T10:26:15;10.10;99.90
60727;DHT22;46577;49.004;12.120;2023-04-15T10:28:42;10.30;99.90
60727;DHT22;46577;49.004;12.120;2023-04-15T10:31:11;10.10;99.90
60727;DHT22;46577;49.004;12.120;2023-04-15T10:33:38;10.10;99.90
60727;DHT22;46577;49.004;12.120;2023-04-15T10:36:05;10.00;99.90
60727;DHT22;46577;49.004;12.120;2023-04-15T10:41:24;10.20;99.90
60727;DHT22;46577;49.004;12.120;2023-04-15T10:44:04;10.30;99.90
60727;DHT22;46577;49.004;12.120;2023-04-15T10:46:38;10.60;99.90
60727;DHT22;46577;49.004;12.120;2023-04-15T10:49:15;11.70;99.90
60727;DHT22;46577;49.004;12.120;2023-04-15T10:51:43;13.20;99.90
60727;DHT22;46577;49.004;12.120;2023-04-15T10:59:38;13.80;99.80
60727;DHT22;46577;49.004;12.120;2023-04-15T11:05:06;13.60;99.10
60727;DHT22;46577;49.004;12.120;2023-04-15T11:07:47;13.10;99.40
60727;DHT22;46577;49.004;12.120;2023-04-15T11:12:42;13.40;99.90
60727;DHT22;46577;49.004;12.120;2023-04-15T11:15:36;13.70;99.90
60727;DHT22;46577;49.004;12.120;2023-04-15T11:18:10;13.40;99.00
60727;DHT22;46577;49.004;12.120;2023-04-15T11:20:38;13.10;99.50
60727;DHT22;46577;49.004;12.120;2023-04-15T11:23:05;12.70;99.80
60727;DHT22;46577;49.004;12.120;2023-04-15T11:25:32;12.10;99.90
60727;DHT22;46577;49.004;12.120;2023-04-15T11:28:00;12.00;99.90
60727;DHT22;46577;49.004;12.120;2023-04-15T11:30:28;12.20;99.90
60727;DHT22;46577;49.004;12.120;2023-04-15T11:32:57;12.20;99.90
60727;DHT22;46577;49.004;12.120;2023-04-15T11:35:23;12.30;99.90
60727;DHT22;46577;49.004;12.120;2023-04-15T11:37:49;12.10;99.90
60727;DHT22;46577;49.004;12.120;2023-04-15T11:40:16;12.00;99.90
60727;DHT22;46577;49.004;12.120;2023-04-15T11:42:46;11.90;99.90
60727;DHT22;46577;49.004;12.120;2023-04-15T11:45:14;11.90;99.90
60727;DHT22;46577;49.004;12.120;2023-04-15T11:47:42;12.10;99.90
60727;DHT22;46577;49.004;12.120;2023-04-15T11:50:16;12.10;99.90
60727;DHT22;46577;49.004;12.120;2023-04-15T11:52:52;12.50;99.90
60727;DHT22;46577;49.004;12.120;2023-04-15T11:55:18;12.70;99.90
60727;DHT22;46577;49.004;12.120;2023-04-15T11:57:44;12.70;99.90
60727;DHT22;46577;49.004;12.120;2023-04-15T12:00:10;12.70;99.90
60727;DHT22;46577;49.004;12.120;2023-04-15T12:02:36;12.80;99.90
60727;DHT22;46577;49.004;12.120;2023-04-15T12:05:05;12.80;99.90
60727;DHT22;46577;49.004;12.120;2023-04-15T12:07:31;12.70;99.90
60727;DHT22;46577;49.004;12.120;2023-04-15T12:09:57;12.60;99.90
60727;DHT22;46577;49.004;12.120;2023-04-15T12:12:27;12.60;99.90
60727;DHT22;46577;49.004;12.120;2023-04-15T12:14:55;12.30;99.90
60727;DHT22;46577;49.004;12.120;2023-04-15T12:17:22;12.30;99.90
60727;DHT22;46577;49.004;12.120;2023-04-15T12:19:48;12.20;99.90
60727;DHT22;46577;49.004;12.120;2023-04-15T12:22:15;12.20;99.90
60727;DHT22;46577;49.004;12.120;2023-04-15T12:24:43;12.30;99.90
60727;DHT22;46577;49.004;12.120;2023-04-15T12:27:12;12.20;99.90
60727;DHT22;46577;49.004;12.120;2023-04-15T12:29:39;11.90;99.90
60727;DHT22;46577;49.004;12.120;2023-04-15T12:32:06;11.70;99.90
60727;DHT22;46577;49.004;12.120;2023-04-15T12:34:34;11.70;99.90
60727;DHT22;46577;49.004;12.120;2023-04-15T12:37:02;11.30;99.90
60727;DHT22;46577;49.004;12.120;2023-04-15T12:39:30;11.10;99.90
60727;DHT22;46577;49.004;12.120;2023-04-15T12:41:57;11.00;99.90
60727;DHT22;46577;49.004;12.120;2023-04-15T12:44:24;10.90;99.90
60727;DHT22;46577;49.004;12.120;2023-04-15T12:46:51;10.90;99.90
60727;DHT22;46577;49.004;12.120;2023-04-15T12:49:18;10.90;99.90
60727;DHT22;46577;49.004;12.120;2023-04-15T12:51:48;10.90;99.90
60727;DHT22;46577;49.004;12.120;2023-04-15T12:54:14;10.80;99.90
60727;DHT22;46577;49.004;12.120;2023-04-15T12:56:41;10.70;99.90
60727;DHT22;46577;49.004;12.120;2023-04-15T12:59:06;10.60;99.90
60727;DHT22;46577;49.004;12.120;2023-04-15T13:01:32;10.80;99.90
60727;DHT22;46577;49.004;12.120;2023-04-15T13:03:57;10.80;99.90
60727;DHT22;46577;49.004;12.120;2023-04-15T13:06:23;10.80;99.90
60727;DHT22;46577;49.004;12.120;2023-04-15T13:08:49;10.80;99.90
60727;DHT22;46577;49.004;12.120;2023-04-15T13:11:15;10.90;99.90
60727;DHT22;46577;49.004;12.120;2023-04-15T13:13:41;10.90;99.90
60727;DHT22;46577;49.004;12.120;2023-04-15T13:16:07;10.80;99.90
60727;DHT22;46577;49.004;12.120;2023-04-15T13:18:34;10.70;99.90
60727;DHT22;46577;49.004;12.120;2023-04-15T13:21:00;10.60;99.90
60727;DHT22;46577;49.004;12.120;2023-04-15T13:23:26;10.50;99.90
60727;DHT22;46577;49.004;12.120;2023-04-15T13:25:52;10.40;99.90
60727;DHT22;46577;49.004;12.120;2023-04-15T13:28:17;10.40;99.90
60727;DHT22;46577;49.004;12.120;2023-04-15T13:30:43;10.30;99.90
60727;DHT22;46577;49.004;12.120;2023-04-15T13:33:10;10.30;99.90
60727;DHT22;46577;49.004;12.120;2023-04-15T13:35:36;10.10;99.90
60727;DHT22;46577;49.004;12.120;2023-04-15T13:38:01;10.20;99.90
60727;DHT22;46577;49.004;12.120;2023-04-15T13:40:27;10.30;99.90
60727;DHT22;46577;49.004;12.120;2023-04-15T13:42:53;10.50;99.90
60727;DHT22;46577;49.004;12.120;2023-04-15T13:45:18;10.40;99.90
60727;DHT22;46577;49.004;12.120;2023-04-15T13:47:44;10.50;99.90
60727;DHT22;46577;49.004;12.120;2023-04-15T13:50:10;10.50;99.90
60727;DHT22;46577;49.004;12.120;2023-04-15T13:52:35;10.60;99.90
60727;DHT22;46577;49.004;12.120;2023-04-15T13:55:02;10.60;99.90
60727;DHT22;46577;49.004;12.120;2023-04-15T13:57:28;10.50;99.90
60727;DHT22;46577;49.004;12.120;2023-04-15T13:59:54;10.20;99.90
60727;DHT22;46577;49.004;12.120;2023-04-15T14:02:20;10.10;99.90
60727;DHT22;46577;49.004;12.120;2023-04-15T14:04:46;10.10;99.90
60727;DHT22;46577;49.004;12.120;2023-04-15T14:07:11;10.10;99.90
60727;DHT22;46577;49.004;12.120;2023-04-15T14:09:37;10.30;99.90
60727;DHT22;46577;49.004;12.120;2023-04-15T14:12:03;10.60;99.90
60727;DHT22;46577;49.004;12.120;2023-04-15T14:14:28;10.50;99.90
60727;DHT22;46577;49.004;12.120;2023-04-15T14:16:54;10.60;99.90
60727;DHT22;46577;49.004;12.120;2023-04-15T14:19:20;10.60;99.90
60727;DHT22;46577;49.004;12.120;2023-04-15T14:21:46;10.80;99.90
60727;DHT22;46577;49.004;12.120;2023-04-15T14:24:12;11.10;99.90
60727;DHT22;46577;49.004;12.120;2023-04-15T14:26:37;11.30;99.90
60727;DHT22;46577;49.004;12.120;2023-04-15T14:29:03;11.50;99.90
60727;DHT22;46577;49.004;12.120;2023-04-15T14:31:28;11.60;99.90
60727;DHT22;46577;49.004;12.120;2023-04-15T14:33:54;11.70;99.90
60727;DHT22;46577;49.004;12.120;2023-04-15T14:36:20;11.80;99.90
60727;DHT22;46577;49.004;12.120;2023-04-15T14:38:45;11.80;99.90
60727;DHT22;46577;49.004;12.120;2023-04-15T14:41:11;11.70;99.90
60727;DHT22;46577;49.004;12.120;2023-04-15T14:43:37;11.40;99.90
60727;DHT22;46577;49.004;12.120;2023-04-15T14:46:03;11.20;99.90
60727;DHT22;46577;49.004;12.120;2023-04-15T14:48:30;11.00;99.90
60727;DHT22;46577;49.004;12.120;2023-04-15T14:50:56;10.80;99.90
60727;DHT22;46577;49.004;12.120;2023-04-15T14:53:22;10.60;99.90
60727;DHT22;46577;49.004;12.120;2023-04-15T14:55:48;10.70;99.90
60727;DHT22;46577;49.004;12.120;2023-04-15T14:58:13;10.80;99.90
60727;DHT22;46577;49.004;12.120;2023-04-15T15:00:39;10.90;99.90
60727;DHT22;46577;49.004;12.120;2023-04-15T15:03:09;11.10;99.90
60727;DHT22;46577;49.004;12.120;2023-04-15T15:05:41;11.30;99.90
60727;DHT22;46577;49.004;12.120;2023-04-15T15:08:08;11.40;99.90
60727;DHT22;46577;49.004;12.120;2023-04-15T15:10:34;11.20;99.90
60727;DHT22;46577;49.004;12.120;2023-04-15T15:13:08;11.30;99.90
60727;DHT22;46577;49.004;12.120;2023-04-15T15:15:34;11.50;99.90
60727;DHT22;46577;49.004;12.120;2023-04-15T15:18:01;11.60;99.90
60727;DHT22;46577;49.004;12.120;2023-04-15T15:20:27;11.60;99.90
60727;DHT22;46577;49.004;12.120;2023-04-15T15:22:53;11.50;99.90
60727;DHT22;46577;49.004;12.120;2023-04-15T15:25:22;11.40;99.90
60727;DHT22;46577;49.004;12.120;2023-04-15T15:27:48;11.40;99.90
60727;DHT22;46577;49.004;12.120;2023-04-15T15:30:14;11.30;99.90
60727;DHT22;46577;49.004;12.120;2023-04-15T15:32:40;11.30;99.90
60727;DHT22;46577;49.004;12.120;2023-04-15T15:35:07;11.00;99.90